sensor_id;sensor_type;location;lat;lon;timestamp;P1;durP1;ratioP1;P2;durP2;ratioP2
3689;SDS011;1861;50.240;8.596;2023-07-08T00:01:10;4.40;;;3.03;;
3689;SDS011;1861;50.240;8.596;2023-07-08T00:03:40;5.30;;;3.55;;
3689;SDS011;1861;50.240;8.596;2023-07-08T00:06:10;4.43;;;3.20;;
3689;SDS011;1861;50.240;8.596;2023-07-08T00:08:41;7.05;;;3.25;;
3689;SDS011;1861;50.240;8.596;2023-07-08T00:11:10;7.20;;;3.40;;
3689;SDS011;1861;50.240;8.596;2023-07-08T00:13:39;7.70;;;3.10;;
3689;SDS011;1861;50.240;8.596;2023-07-08T00:16:10;3.67;;;2.77;;
3689;SDS011;1861;50.240;8.596;2023-07-08T00:18:39;4.95;;;3.20;;
3689;SDS011;1861;50.240;8.596;2023-07-08T00:21:08;5.07;;;3.20;;
3689;SDS011;1861;50.240;8.596;2023-07-08T00:23:42;5.03;;;2.75;;
3689;SDS011;1861;50.240;8.596;2023-07-08T00:26:21;5.60;;;3.47;;
3689;SDS011;1861;50.240;8.596;2023-07-08T00:28:52;4.55;;;2.90;;
3689;SDS011;1861;50.240;8.596;2023-07-08T00:31:22;6.15;;;3.83;;
3689;SDS011;1861;50.240;8.596;2023-07-08T00:33:53;5.60;;;3.30;;
3689;SDS011;1861;50.240;8.596;2023-07-08T00:36:24;5.30;;;3.08;;
3689;SDS011;1861;50.240;8.596;2023-07-08T00:38:54;4.43;;;3.40;;
3689;SDS011;1861;50.240;8.596;2023-07-08T00:41:24;6.17;;;3.57;;
3689;SDS011;1861;50.240;8.596;2023-07-08T00:43:56;4.63;;;3.42;;
3689;SDS011;1861;50.240;8.596;2023-07-08T00:46:31;4.75;;;3.03;;
3689;SDS011;1861;50.240;8.596;2023-07-08T00:49:09;5.15;;;3.70;;
3689;SDS011;1861;50.240;8.596;2023-07-08T00:51:47;4.93;;;2.85;;
3689;SDS011;1861;50.240;8.596;2023-07-08T00:54:16;3.33;;;2.70;;
3689;SDS011;1861;50.240;8.596;2023-07-08T00:56:46;3.90;;;2.90;;
3689;SDS011;1861;50.240;8.596;2023-07-08T00:59:17;9.33;;;3.20;;
3689;SDS011;1861;50.240;8.596;2023-07-08T01:01:50;6.25;;;3.85;;
3689;SDS011;1861;50.240;8.596;2023-07-08T01:04:20;7.00;;;3.60;;
3689;SDS011;1861;50.240;8.596;2023-07-08T01:06:52;6.33;;;3.60;;
3689;SDS011;1861;50.240;8.596;2023-07-08T01:09:24;6.90;;;3.00;;
3689;SDS011;1861;50.240;8.596;2023-07-08T01:11:56;6.80;;;3.70;;
3689;SDS011;1861;50.240;8.596;2023-07-08T01:14:29;5.53;;;3.07;;
3689;SDS011;1861;50.240;8.596;2023-07-08T01:17:03;5.63;;;3.42;;
3689;SDS011;1861;50.240;8.596;2023-07-08T01:19:31;6.22;;;3.10;;
3689;SDS011;1861;50.240;8.596;2023-07-08T01:22:01;5.97;;;2.80;;
3689;SDS011;1861;50.240;8.596;2023-07-08T01:24:30;5.13;;;3.30;;
3689;SDS011;1861;50.240;8.596;2023-07-08T01:27:03;6.13;;;3.80;;
3689;SDS011;1861;50.240;8.596;2023-07-08T01:29:34;4.30;;;3.07;;
3689;SDS011;1861;50.240;8.596;2023-07-08T01:32:02;4.82;;;3.35;;
3689;SDS011;1861;50.240;8.596;2023-07-08T01:34:32;5.22;;;3.60;;
3689;SDS011;1861;50.240;8.596;2023-07-08T01:37:03;5.20;;;2.77;;
3689;SDS011;1861;50.240;8.596;2023-07-08T01:39:34;7.00;;;3.63;;
3689;SDS011;1861;50.240;8.596;2023-07-08T01:42:02;6.50;;;4.07;;
3689;SDS011;1861;50.240;8.596;2023-07-08T01:44:31;6.07;;;3.42;;
3689;SDS011;1861;50.240;8.596;2023-07-08T01:47:02;6.40;;;3.35;;
3689;SDS011;1861;50.240;8.596;2023-07-08T01:49:37;4.97;;;3.40;;
3689;SDS011;1861;50.240;8.596;2023-07-08T01:52:08;4.15;;;3.15;;
3689;SDS011;1861;50.240;8.596;2023-07-08T01:54:38;4.10;;;2.97;;
3689;SDS011;1861;50.240;8.596;2023-07-08T01:57:06;4.90;;;3.28;;
3689;SDS011;1861;50.240;8.596;2023-07-08T01:59:34;4.70;;;3.20;;
3689;SDS011;1861;50.240;8.596;2023-07-08T02:02:03;5.47;;;3.22;;
3689;SDS011;1861;50.240;8.596;2023-07-08T02:04:31;6.20;;;3.13;;
3689;SDS011;1861;50.240;8.596;2023-07-08T02:06:59;4.72;;;2.65;;
3689;SDS011;1861;50.240;8.596;2023-07-08T02:12:56;5.87;;;3.13;;
3689;SDS011;1861;50.240;8.596;2023-07-08T02:15:25;6.63;;;3.70;;
3689;SDS011;1861;50.240;8.596;2023-07-08T02:17:53;4.15;;;2.97;;
3689;SDS011;1861;50.240;8.596;2023-07-08T02:20:21;4.65;;;3.30;;
3689;SDS011;1861;50.240;8.596;2023-07-08T02:22:51;5.93;;;3.50;;
3689;SDS011;1861;50.240;8.596;2023-07-08T02:25:19;5.60;;;3.00;;
3689;SDS011;1861;50.240;8.596;2023-07-08T02:27:47;9.15;;;4.10;;
3689;SDS011;1861;50.240;8.596;2023-07-08T02:30:16;4.55;;;3.28;;
3689;SDS011;1861;50.240;8.596;2023-07-08T02:32:45;4.95;;;3.42;;
3689;SDS011;1861;50.240;8.596;2023-07-08T02:35:23;6.27;;;3.60;;
3689;SDS011;1861;50.240;8.596;2023-07-08T02:37:53;5.80;;;3.17;;
3689;SDS011;1861;50.240;8.596;2023-07-08T02:40:21;7.17;;;3.40;;
3689;SDS011;1861;50.240;8.596;2023-07-08T02:42:50;6.30;;;3.90;;
3689;SDS011;1861;50.240;8.596;2023-07-08T02:45:20;6.18;;;3.80;;
3689;SDS011;1861;50.240;8.596;2023-07-08T02:47:48;5.03;;;3.03;;
3689;SDS011;1861;50.240;8.596;2023-07-08T02:50:16;4.93;;;3.70;;
3689;SDS011;1861;50.240;8.596;2023-07-08T02:52:45;4.90;;;2.92;;
3689;SDS011;1861;50.240;8.596;2023-07-08T02:55:13;5.10;;;3.27;;
3689;SDS011;1861;50.240;8.596;2023-07-08T02:57:41;5.47;;;3.57;;
3689;SDS011;1861;50.240;8.596;2023-07-08T03:00:10;5.13;;;3.33;;
3689;SDS011;1861;50.240;8.596;2023-07-08T03:02:41;6.45;;;3.85;;
3689;SDS011;1861;50.240;8.596;2023-07-08T03:05:09;10.77;;;4.10;;
3689;SDS011;1861;50.240;8.596;2023-07-08T03:07:37;7.80;;;3.00;;
3689;SDS011;1861;50.240;8.596;2023-07-08T03:10:06;5.70;;;3.10;;
3689;SDS011;1861;50.240;8.596;2023-07-08T03:12:34;5.90;;;3.30;;
3689;SDS011;1861;50.240;8.596;2023-07-08T03:15:03;5.73;;;3.20;;
3689;SDS011;1861;50.240;8.596;2023-07-08T03:17:32;7.93;;;3.83;;
3689;SDS011;1861;50.240;8.596;2023-07-08T03:20:03;7.70;;;3.60;;
3689;SDS011;1861;50.240;8.596;2023-07-08T03:22:34;6.07;;;3.72;;
3689;SDS011;1861;50.240;8.596;2023-07-08T03:25:02;5.28;;;3.45;;
3689;SDS011;1861;50.240;8.596;2023-07-08T03:27:30;4.23;;;3.20;;
3689;SDS011;1861;50.240;8.596;2023-07-08T03:29:59;4.85;;;3.45;;
3689;SDS011;1861;50.240;8.596;2023-07-08T03:32:29;5.20;;;3.38;;
3689;SDS011;1861;50.240;8.596;2023-07-08T03:34:57;6.43;;;3.25;;
3689;SDS011;1861;50.240;8.596;2023-07-08T03:37:29;7.17;;;3.60;;
3689;SDS011;1861;50.240;8.596;2023-07-08T03:39:57;6.57;;;4.03;;
3689;SDS011;1861;50.240;8.596;2023-07-08T03:42:25;4.55;;;3.17;;
3689;SDS011;1861;50.240;8.596;2023-07-08T03:44:53;5.33;;;3.70;;
3689;SDS011;1861;50.240;8.596;2023-07-08T03:47:24;5.78;;;3.30;;
3689;SDS011;1861;50.240;8.596;2023-07-08T03:49:52;5.32;;;3.58;;
3689;SDS011;1861;50.240;8.596;2023-07-08T03:52:20;5.80;;;4.00;;
3689;SDS011;1861;50.240;8.596;2023-07-08T03:54:50;6.32;;;3.80;;
3689;SDS011;1861;50.240;8.596;2023-07-08T03:57:19;5.00;;;3.38;;
3689;SDS011;1861;50.240;8.596;2023-07-08T03:59:47;5.50;;;3.47;;
3689;SDS011;1861;50.240;8.596;2023-07-08T04:02:16;7.20;;;4.35;;
3689;SDS011;1861;50.240;8.596;2023-07-08T04:04:44;8.15;;;4.22;;
3689;SDS011;1861;50.240;8.596;2023-07-08T04:07:13;5.50;;;3.73;;
3689;SDS011;1861;50.240;8.596;2023-07-08T04:09:41;4.93;;;3.33;;
3689;SDS011;1861;50.240;8.596;2023-07-08T04:12:11;6.20;;;3.67;;
3689;SDS011;1861;50.240;8.596;2023-07-08T04:14:40;7.23;;;3.60;;
3689;SDS011;1861;50.240;8.596;2023-07-08T04:17:09;6.40;;;3.43;;
3689;SDS011;1861;50.240;8.596;2023-07-08T04:19:38;6.88;;;4.30;;
3689;SDS011;1861;50.240;8.596;2023-07-08T04:22:10;7.03;;;3.30;;
3689;SDS011;1861;50.240;8.596;2023-07-08T04:24:38;6.53;;;3.63;;
3689;SDS011;1861;50.240;8.596;2023-07-08T04:27:08;7.77;;;3.83;;
3689;SDS011;1861;50.240;8.596;2023-07-08T04:29:40;6.10;;;3.67;;
3689;SDS011;1861;50.240;8.596;2023-07-08T04:32:08;6.53;;;3.60;;
3689;SDS011;1861;50.240;8.596;2023-07-08T04:34:37;6.72;;;3.47;;
3689;SDS011;1861;50.240;8.596;2023-07-08T04:37:05;5.55;;;3.67;;
3689;SDS011;1861;50.240;8.596;2023-07-08T04:39:33;5.45;;;4.03;;
3689;SDS011;1861;50.240;8.596;2023-07-08T04:42:01;4.30;;;3.20;;
3689;SDS011;1861;50.240;8.596;2023-07-08T04:44:31;9.32;;;3.35;;
3689;SDS011;1861;50.240;8.596;2023-07-08T04:47:00;5.30;;;3.55;;
3689;SDS011;1861;50.240;8.596;2023-07-08T04:49:28;8.23;;;3.75;;
3689;SDS011;1861;50.240;8.596;2023-07-08T04:51:58;5.90;;;3.78;;
3689;SDS011;1861;50.240;8.596;2023-07-08T04:54:28;5.55;;;3.58;;
3689;SDS011;1861;50.240;8.596;2023-07-08T04:56:56;5.07;;;3.13;;
3689;SDS011;1861;50.240;8.596;2023-07-08T04:59:24;7.10;;;3.60;;
3689;SDS011;1861;50.240;8.596;2023-07-08T05:01:54;9.05;;;3.60;;
3689;SDS011;1861;50.240;8.596;2023-07-08T05:04:22;6.37;;;3.57;;
3689;SDS011;1861;50.240;8.596;2023-07-08T05:06:50;6.60;;;3.97;;
3689;SDS011;1861;50.240;8.596;2023-07-08T05:09:19;6.03;;;4.07;;
3689;SDS011;1861;50.240;8.596;2023-07-08T05:11:48;8.13;;;3.63;;
3689;SDS011;1861;50.240;8.596;2023-07-08T05:14:16;7.93;;;4.50;;
3689;SDS011;1861;50.240;8.596;2023-07-08T05:16:45;6.22;;;3.83;;
3689;SDS011;1861;50.240;8.596;2023-07-08T05:19:15;4.93;;;3.50;;
3689;SDS011;1861;50.240;8.596;2023-07-08T05:21:44;6.03;;;3.57;;
3689;SDS011;1861;50.240;8.596;2023-07-08T05:24:14;4.80;;;3.30;;
3689;SDS011;1861;50.240;8.596;2023-07-08T05:26:42;5.82;;;3.45;;
3689;SDS011;1861;50.240;8.596;2023-07-08T05:29:11;6.70;;;3.80;;
3689;SDS011;1861;50.240;8.596;2023-07-08T05:31:39;6.28;;;3.60;;
3689;SDS011;1861;50.240;8.596;2023-07-08T05:34:13;6.47;;;3.42;;
3689;SDS011;1861;50.240;8.596;2023-07-08T05:36:43;6.05;;;3.63;;
3689;SDS011;1861;50.240;8.596;2023-07-08T05:39:11;7.75;;;3.55;;
3689;SDS011;1861;50.240;8.596;2023-07-08T05:41:39;6.80;;;3.70;;
3689;SDS011;1861;50.240;8.596;2023-07-08T05:44:07;6.15;;;3.80;;
3689;SDS011;1861;50.240;8.596;2023-07-08T05:46:36;5.40;;;3.47;;
3689;SDS011;1861;50.240;8.596;2023-07-08T05:49:04;5.93;;;3.67;;
3689;SDS011;1861;50.240;8.596;2023-07-08T05:51:35;14.73;;;4.07;;
3689;SDS011;1861;50.240;8.596;2023-07-08T05:54:04;6.60;;;3.78;;
3689;SDS011;1861;50.240;8.596;2023-07-08T05:56:33;4.28;;;3.40;;
3689;SDS011;1861;50.240;8.596;2023-07-08T05:59:01;6.28;;;3.72;;
3689;SDS011;1861;50.240;8.596;2023-07-08T06:01:30;9.77;;;3.95;;
3689;SDS011;1861;50.240;8.596;2023-07-08T06:03:58;14.07;;;4.60;;
3689;SDS011;1861;50.240;8.596;2023-07-08T06:06:27;6.28;;;3.95;;
3689;SDS011;1861;50.240;8.596;2023-07-08T06:08:57;6.10;;;3.50;;
3689;SDS011;1861;50.240;8.596;2023-07-08T06:11:26;6.22;;;3.65;;
3689;SDS011;1861;50.240;8.596;2023-07-08T06:13:58;8.85;;;4.45;;
3689;SDS011;1861;50.240;8.596;2023-07-08T06:19:07;6.47;;;4.20;;
3689;SDS011;1861;50.240;8.596;2023-07-08T06:21:35;5.88;;;3.65;;
3689;SDS011;1861;50.240;8.596;2023-07-08T06:24:05;7.78;;;4.15;;
3689;SDS011;1861;50.240;8.596;2023-07-08T06:26:33;5.13;;;3.35;;
3689;SDS011;1861;50.240;8.596;2023-07-08T06:29:01;5.63;;;3.40;;
3689;SDS011;1861;50.240;8.596;2023-07-08T06:31:30;6.28;;;3.55;;
3689;SDS011;1861;50.240;8.596;2023-07-08T06:33:58;6.07;;;3.08;;
3689;SDS011;1861;50.240;8.596;2023-07-08T06:36:27;5.07;;;3.00;;
3689;SDS011;1861;50.240;8.596;2023-07-08T06:38:55;8.43;;;4.65;;
3689;SDS011;1861;50.240;8.596;2023-07-08T06:41:24;8.90;;;3.90;;
3689;SDS011;1861;50.240;8.596;2023-07-08T06:43:52;5.75;;;3.75;;
3689;SDS011;1861;50.240;8.596;2023-07-08T06:46:24;5.30;;;3.60;;
3689;SDS011;1861;50.240;8.596;2023-07-08T06:48:52;4.72;;;3.33;;
3689;SDS011;1861;50.240;8.596;2023-07-08T06:51:21;5.50;;;3.67;;
3689;SDS011;1861;50.240;8.596;2023-07-08T06:53:49;5.37;;;3.80;;
3689;SDS011;1861;50.240;8.596;2023-07-08T06:56:17;5.78;;;3.70;;
3689;SDS011;1861;50.240;8.596;2023-07-08T06:58:46;6.72;;;3.38;;
3689;SDS011;1861;50.240;8.596;2023-07-08T07:01:14;3.83;;;3.03;;
3689;SDS011;1861;50.240;8.596;2023-07-08T07:03:43;5.15;;;3.22;;
3689;SDS011;1861;50.240;8.596;2023-07-08T07:06:11;6.93;;;3.30;;
3689;SDS011;1861;50.240;8.596;2023-07-08T07:08:39;4.93;;;3.35;;
3689;SDS011;1861;50.240;8.596;2023-07-08T07:11:08;3.70;;;3.03;;
3689;SDS011;1861;50.240;8.596;2023-07-08T07:13:36;5.20;;;3.20;;
3689;SDS011;1861;50.240;8.596;2023-07-08T07:16:05;6.10;;;3.20;;
3689;SDS011;1861;50.240;8.596;2023-07-08T07:18:33;10.15;;;3.63;;
3689;SDS011;1861;50.240;8.596;2023-07-08T07:21:01;7.82;;;4.30;;
3689;SDS011;1861;50.240;8.596;2023-07-08T07:23:33;8.88;;;4.75;;
3689;SDS011;1861;50.240;8.596;2023-07-08T07:26:01;7.50;;;4.60;;
3689;SDS011;1861;50.240;8.596;2023-07-08T07:28:29;6.18;;;3.75;;
3689;SDS011;1861;50.240;8.596;2023-07-08T07:30:58;6.53;;;4.10;;
3689;SDS011;1861;50.240;8.596;2023-07-08T07:33:29;6.85;;;4.50;;
3689;SDS011;1861;50.240;8.596;2023-07-08T07:35:58;5.53;;;3.35;;
3689;SDS011;1861;50.240;8.596;2023-07-08T07:38:26;6.60;;;3.67;;
3689;SDS011;1861;50.240;8.596;2023-07-08T07:40:55;9.45;;;4.07;;
3689;SDS011;1861;50.240;8.596;2023-07-08T07:43:26;4.47;;;3.28;;
3689;SDS011;1861;50.240;8.596;2023-07-08T07:45:55;6.15;;;3.50;;
3689;SDS011;1861;50.240;8.596;2023-07-08T07:48:24;8.80;;;3.58;;
3689;SDS011;1861;50.240;8.596;2023-07-08T07:50:53;6.82;;;4.25;;
3689;SDS011;1861;50.240;8.596;2023-07-08T07:53:21;8.85;;;3.70;;
3689;SDS011;1861;50.240;8.596;2023-07-08T07:55:55;10.02;;;4.30;;
3689;SDS011;1861;50.240;8.596;2023-07-08T07:58:24;11.52;;;5.03;;
3689;SDS011;1861;50.240;8.596;2023-07-08T08:00:52;13.57;;;4.40;;
3689;SDS011;1861;50.240;8.596;2023-07-08T08:03:20;6.72;;;3.92;;
3689;SDS011;1861;50.240;8.596;2023-07-08T08:05:49;8.50;;;3.88;;
3689;SDS011;1861;50.240;8.596;2023-07-08T08:08:19;6.68;;;3.80;;
3689;SDS011;1861;50.240;8.596;2023-07-08T08:10:48;7.55;;;3.88;;
3689;SDS011;1861;50.240;8.596;2023-07-08T08:13:16;9.60;;;4.22;;
3689;SDS011;1861;50.240;8.596;2023-07-08T08:15:45;8.77;;;3.97;;
3689;SDS011;1861;50.240;8.596;2023-07-08T08:18:13;7.13;;;3.70;;
3689;SDS011;1861;50.240;8.596;2023-07-08T08:20:41;6.45;;;4.70;;
3689;SDS011;1861;50.240;8.596;2023-07-08T08:23:09;10.95;;;4.00;;
3689;SDS011;1861;50.240;8.596;2023-07-08T08:25:39;4.57;;;3.58;;
3689;SDS011;1861;50.240;8.596;2023-07-08T08:28:07;9.15;;;4.18;;
3689;SDS011;1861;50.240;8.596;2023-07-08T08:30:35;6.77;;;4.20;;
3689;SDS011;1861;50.240;8.596;2023-07-08T08:33:03;10.20;;;5.03;;
3689;SDS011;1861;50.240;8.596;2023-07-08T08:35:31;7.18;;;4.32;;
3689;SDS011;1861;50.240;8.596;2023-07-08T08:37:59;8.75;;;4.07;;
3689;SDS011;1861;50.240;8.596;2023-07-08T08:40:29;7.60;;;4.45;;
3689;SDS011;1861;50.240;8.596;2023-07-08T08:43:01;10.52;;;3.90;;
3689;SDS011;1861;50.240;8.596;2023-07-08T08:45:33;7.95;;;4.40;;
3689;SDS011;1861;50.240;8.596;2023-07-08T08:48:10;7.80;;;4.50;;
3689;SDS011;1861;50.240;8.596;2023-07-08T08:50:43;7.40;;;4.22;;
3689;SDS011;1861;50.240;8.596;2023-07-08T08:53:17;9.07;;;4.57;;
3689;SDS011;1861;50.240;8.596;2023-07-08T08:55:48;12.52;;;4.43;;
3689;SDS011;1861;50.240;8.596;2023-07-08T08:58:26;7.28;;;4.50;;
3689;SDS011;1861;50.240;8.596;2023-07-08T09:01:07;6.88;;;3.72;;
3689;SDS011;1861;50.240;8.596;2023-07-08T09:03:42;6.22;;;3.58;;
3689;SDS011;1861;50.240;8.596;2023-07-08T09:06:14;7.68;;;3.80;;
3689;SDS011;1861;50.240;8.596;2023-07-08T09:08:48;8.77;;;3.80;;
3689;SDS011;1861;50.240;8.596;2023-07-08T09:11:29;9.73;;;4.97;;
3689;SDS011;1861;50.240;8.596;2023-07-08T09:14:15;7.55;;;3.92;;
3689;SDS011;1861;50.240;8.596;2023-07-08T09:16:50;6.90;;;4.10;;
3689;SDS011;1861;50.240;8.596;2023-07-08T09:19:25;7.05;;;3.75;;
3689;SDS011;1861;50.240;8.596;2023-07-08T09:21:58;8.80;;;3.63;;
3689;SDS011;1861;50.240;8.596;2023-07-08T09:24:41;6.68;;;3.80;;
3689;SDS011;1861;50.240;8.596;2023-07-08T09:27:10;7.82;;;4.30;;
3689;SDS011;1861;50.240;8.596;2023-07-08T09:29:40;6.13;;;3.80;;
3689;SDS011;1861;50.240;8.596;2023-07-08T09:32:13;6.43;;;3.65;;
3689;SDS011;1861;50.240;8.596;2023-07-08T09:34:45;7.85;;;3.83;;
3689;SDS011;1861;50.240;8.596;2023-07-08T09:37:26;4.40;;;3.13;;
3689;SDS011;1861;50.240;8.596;2023-07-08T09:39:57;6.32;;;3.90;;
3689;SDS011;1861;50.240;8.596;2023-07-08T09:42:28;6.35;;;4.03;;
3689;SDS011;1861;50.240;8.596;2023-07-08T09:45:00;6.43;;;3.65;;
3689;SDS011;1861;50.240;8.596;2023-07-08T09:47:33;7.65;;;4.65;;
3689;SDS011;1861;50.240;8.596;2023-07-08T09:50:03;4.13;;;3.33;;
3689;SDS011;1861;50.240;8.596;2023-07-08T09:52:42;4.45;;;3.20;;
3689;SDS011;1861;50.240;8.596;2023-07-08T09:55:11;6.38;;;3.00;;
3689;SDS011;1861;50.240;8.596;2023-07-08T09:57:39;5.93;;;3.78;;
3689;SDS011;1861;50.240;8.596;2023-07-08T10:00:11;7.10;;;3.63;;
3689;SDS011;1861;50.240;8.596;2023-07-08T10:02:42;4.80;;;2.67;;
3689;SDS011;1861;50.240;8.596;2023-07-08T10:05:14;3.42;;;2.78;;
3689;SDS011;1861;50.240;8.596;2023-07-08T10:07:45;5.80;;;3.60;;
3689;SDS011;1861;50.240;8.596;2023-07-08T10:10:16;5.28;;;3.47;;
3689;SDS011;1861;50.240;8.596;2023-07-08T10:12:51;5.63;;;4.00;;
3689;SDS011;1861;50.240;8.596;2023-07-08T10:15:26;6.63;;;4.38;;
3689;SDS011;1861;50.240;8.596;2023-07-08T10:17:58;4.95;;;3.63;;
3689;SDS011;1861;50.240;8.596;2023-07-08T10:20:29;7.65;;;4.18;;
3689;SDS011;1861;50.240;8.596;2023-07-08T10:23:05;6.63;;;3.97;;
3689;SDS011;1861;50.240;8.596;2023-07-08T10:25:43;9.77;;;3.90;;
3689;SDS011;1861;50.240;8.596;2023-07-08T10:28:23;6.40;;;3.83;;
3689;SDS011;1861;50.240;8.596;2023-07-08T10:31:00;6.40;;;4.13;;
3689;SDS011;1861;50.240;8.596;2023-07-08T10:33:42;6.88;;;4.13;;
3689;SDS011;1861;50.240;8.596;2023-07-08T10:36:19;8.95;;;3.78;;
3689;SDS011;1861;50.240;8.596;2023-07-08T10:39:10;3.83;;;3.22;;
3689;SDS011;1861;50.240;8.596;2023-07-08T10:42:02;5.38;;;3.50;;
3689;SDS011;1861;50.240;8.596;2023-07-08T10:44:40;5.20;;;3.38;;
3689;SDS011;1861;50.240;8.596;2023-07-08T10:47:24;5.60;;;3.20;;
3689;SDS011;1861;50.240;8.596;2023-07-08T10:50:09;4.68;;;2.92;;
3689;SDS011;1861;50.240;8.596;2023-07-08T10:52:51;4.78;;;2.53;;
3689;SDS011;1861;50.240;8.596;2023-07-08T10:55:32;5.55;;;3.47;;
3689;SDS011;1861;50.240;8.596;2023-07-08T11:01:09;4.60;;;2.83;;
3689;SDS011;1861;50.240;8.596;2023-07-08T11:03:58;3.70;;;3.00;;
3689;SDS011;1861;50.240;8.596;2023-07-08T11:06:48;4.70;;;3.17;;
3689;SDS011;1861;50.240;8.596;2023-07-08T11:09:22;2.80;;;2.47;;
3689;SDS011;1861;50.240;8.596;2023-07-08T11:11:56;5.00;;;2.67;;
3689;SDS011;1861;50.240;8.596;2023-07-08T11:14:30;3.83;;;2.90;;
3689;SDS011;1861;50.240;8.596;2023-07-08T11:17:10;3.60;;;2.88;;
3689;SDS011;1861;50.240;8.596;2023-07-08T11:19:48;4.50;;;3.10;;
3689;SDS011;1861;50.240;8.596;2023-07-08T11:22:20;4.63;;;2.58;;
3689;SDS011;1861;50.240;8.596;2023-07-08T11:24:49;4.03;;;2.80;;
3689;SDS011;1861;50.240;8.596;2023-07-08T11:27:23;4.18;;;2.50;;
3689;SDS011;1861;50.240;8.596;2023-07-08T11:29:55;4.65;;;2.88;;
3689;SDS011;1861;50.240;8.596;2023-07-08T11:32:26;4.03;;;2.70;;
3689;SDS011;1861;50.240;8.596;2023-07-08T11:34:59;4.38;;;2.70;;
3689;SDS011;1861;50.240;8.596;2023-07-08T11:37:29;5.75;;;3.30;;
3689;SDS011;1861;50.240;8.596;2023-07-08T11:40:00;6.63;;;3.13;;
3689;SDS011;1861;50.240;8.596;2023-07-08T11:42:35;3.63;;;2.78;;
3689;SDS011;1861;50.240;8.596;2023-07-08T11:45:07;3.85;;;2.75;;
3689;SDS011;1861;50.240;8.596;2023-07-08T11:47:44;3.85;;;2.80;;
3689;SDS011;1861;50.240;8.596;2023-07-08T11:50:18;3.40;;;2.55;;
3689;SDS011;1861;50.240;8.596;2023-07-08T11:52:52;3.63;;;2.63;;
3689;SDS011;1861;50.240;8.596;2023-07-08T11:55:22;6.97;;;3.45;;
3689;SDS011;1861;50.240;8.596;2023-07-08T11:57:56;4.20;;;3.00;;
3689;SDS011;1861;50.240;8.596;2023-07-08T12:00:30;3.00;;;2.50;;
3689;SDS011;1861;50.240;8.596;2023-07-08T12:03:03;2.95;;;2.45;;
3689;SDS011;1861;50.240;8.596;2023-07-08T12:05:47;3.83;;;2.63;;
3689;SDS011;1861;50.240;8.596;2023-07-08T12:08:18;4.47;;;2.63;;
3689;SDS011;1861;50.240;8.596;2023-07-08T12:10:47;5.20;;;2.70;;
3689;SDS011;1861;50.240;8.596;2023-07-08T12:13:18;3.75;;;2.80;;
3689;SDS011;1861;50.240;8.596;2023-07-08T12:15:49;4.43;;;3.07;;
3689;SDS011;1861;50.240;8.596;2023-07-08T12:18:19;2.85;;;2.20;;
3689;SDS011;1861;50.240;8.596;2023-07-08T12:20:54;2.28;;;2.03;;
3689;SDS011;1861;50.240;8.596;2023-07-08T12:23:25;3.45;;;2.72;;
3689;SDS011;1861;50.240;8.596;2023-07-08T12:25:56;4.32;;;2.40;;
3689;SDS011;1861;50.240;8.596;2023-07-08T12:28:24;5.38;;;2.67;;
3689;SDS011;1861;50.240;8.596;2023-07-08T12:30:53;6.13;;;3.00;;
3689;SDS011;1861;50.240;8.596;2023-07-08T12:33:26;3.35;;;2.60;;
3689;SDS011;1861;50.240;8.596;2023-07-08T12:35:59;6.27;;;2.50;;
3689;SDS011;1861;50.240;8.596;2023-07-08T12:38:29;3.60;;;3.07;;
3689;SDS011;1861;50.240;8.596;2023-07-08T12:41:00;2.45;;;2.10;;
3689;SDS011;1861;50.240;8.596;2023-07-08T12:43:33;2.90;;;2.40;;
3689;SDS011;1861;50.240;8.596;2023-07-08T12:46:01;2.97;;;2.67;;
3689;SDS011;1861;50.240;8.596;2023-07-08T12:48:31;3.27;;;2.40;;
3689;SDS011;1861;50.240;8.596;2023-07-08T12:51:01;3.23;;;2.33;;
3689;SDS011;1861;50.240;8.596;2023-07-08T12:53:30;3.78;;;2.60;;
3689;SDS011;1861;50.240;8.596;2023-07-08T12:56:00;5.90;;;2.63;;
3689;SDS011;1861;50.240;8.596;2023-07-08T12:58:30;5.13;;;3.00;;
3689;SDS011;1861;50.240;8.596;2023-07-08T13:01:01;5.35;;;2.65;;
3689;SDS011;1861;50.240;8.596;2023-07-08T13:03:34;2.60;;;2.28;;
3689;SDS011;1861;50.240;8.596;2023-07-08T13:06:07;2.65;;;2.10;;
3689;SDS011;1861;50.240;8.596;2023-07-08T13:08:37;5.65;;;3.03;;
3689;SDS011;1861;50.240;8.596;2023-07-08T13:11:06;3.58;;;2.53;;
3689;SDS011;1861;50.240;8.596;2023-07-08T13:13:36;4.88;;;2.95;;
3689;SDS011;1861;50.240;8.596;2023-07-08T13:16:07;4.60;;;2.88;;
3689;SDS011;1861;50.240;8.596;2023-07-08T13:18:39;5.03;;;3.38;;
3689;SDS011;1861;50.240;8.596;2023-07-08T13:21:10;4.43;;;2.90;;
3689;SDS011;1861;50.240;8.596;2023-07-08T13:23:41;5.40;;;3.05;;
3689;SDS011;1861;50.240;8.596;2023-07-08T13:26:13;5.45;;;3.13;;
3689;SDS011;1861;50.240;8.596;2023-07-08T13:28:43;4.97;;;3.00;;
3689;SDS011;1861;50.240;8.596;2023-07-08T13:31:14;3.10;;;2.13;;
3689;SDS011;1861;50.240;8.596;2023-07-08T13:33:49;3.80;;;2.58;;
3689;SDS011;1861;50.240;8.596;2023-07-08T13:36:21;3.55;;;2.53;;
3689;SDS011;1861;50.240;8.596;2023-07-08T13:39:00;3.50;;;2.25;;
3689;SDS011;1861;50.240;8.596;2023-07-08T13:41:31;3.50;;;2.70;;
3689;SDS011;1861;50.240;8.596;2023-07-08T13:44:03;3.60;;;2.97;;
3689;SDS011;1861;50.240;8.596;2023-07-08T13:46:33;4.57;;;2.58;;
3689;SDS011;1861;50.240;8.596;2023-07-08T13:49:11;5.07;;;2.67;;
3689;SDS011;1861;50.240;8.596;2023-07-08T13:51:42;3.08;;;2.28;;
3689;SDS011;1861;50.240;8.596;2023-07-08T13:54:14;3.30;;;2.38;;
3689;SDS011;1861;50.240;8.596;2023-07-08T13:56:46;3.25;;;2.30;;
3689;SDS011;1861;50.240;8.596;2023-07-08T13:59:17;3.50;;;2.28;;
3689;SDS011;1861;50.240;8.596;2023-07-08T14:01:50;3.45;;;2.25;;
3689;SDS011;1861;50.240;8.596;2023-07-08T14:04:20;2.55;;;2.17;;
3689;SDS011;1861;50.240;8.596;2023-07-08T14:06:53;3.30;;;1.93;;
3689;SDS011;1861;50.240;8.596;2023-07-08T14:09:22;3.50;;;2.38;;
3689;SDS011;1861;50.240;8.596;2023-07-08T14:11:51;4.35;;;2.40;;
3689;SDS011;1861;50.240;8.596;2023-07-08T14:14:20;4.20;;;2.63;;
3689;SDS011;1861;50.240;8.596;2023-07-08T14:16:49;3.45;;;2.10;;
3689;SDS011;1861;50.240;8.596;2023-07-08T14:19:20;4.35;;;2.47;;
3689;SDS011;1861;50.240;8.596;2023-07-08T14:21:51;2.63;;;1.83;;
3689;SDS011;1861;50.240;8.596;2023-07-08T14:24:23;3.38;;;2.35;;
3689;SDS011;1861;50.240;8.596;2023-07-08T14:26:52;5.25;;;2.50;;
3689;SDS011;1861;50.240;8.596;2023-07-08T14:29:21;2.58;;;2.15;;
3689;SDS011;1861;50.240;8.596;2023-07-08T14:31:49;2.10;;;1.90;;
3689;SDS011;1861;50.240;8.596;2023-07-08T14:34:20;2.95;;;1.90;;
3689;SDS011;1861;50.240;8.596;2023-07-08T14:36:51;3.53;;;2.25;;
3689;SDS011;1861;50.240;8.596;2023-07-08T14:39:21;3.72;;;2.15;;
3689;SDS011;1861;50.240;8.596;2023-07-08T14:41:50;2.85;;;2.30;;
3689;SDS011;1861;50.240;8.596;2023-07-08T14:44:19;2.50;;;1.90;;
3689;SDS011;1861;50.240;8.596;2023-07-08T14:46:49;3.85;;;2.75;;
3689;SDS011;1861;50.240;8.596;2023-07-08T14:49:18;3.90;;;2.53;;
3689;SDS011;1861;50.240;8.596;2023-07-08T14:51:48;2.83;;;2.10;;
3689;SDS011;1861;50.240;8.596;2023-07-08T14:54:16;3.30;;;2.40;;
3689;SDS011;1861;50.240;8.596;2023-07-08T14:56:46;3.30;;;2.03;;
3689;SDS011;1861;50.240;8.596;2023-07-08T14:59:16;4.13;;;2.40;;
3689;SDS011;1861;50.240;8.596;2023-07-08T15:01:46;3.20;;;2.20;;
3689;SDS011;1861;50.240;8.596;2023-07-08T15:04:15;2.40;;;1.90;;
3689;SDS011;1861;50.240;8.596;2023-07-08T15:06:45;3.97;;;2.58;;
3689;SDS011;1861;50.240;8.596;2023-07-08T15:09:14;2.47;;;2.03;;
3689;SDS011;1861;50.240;8.596;2023-07-08T15:11:43;3.30;;;2.33;;
3689;SDS011;1861;50.240;8.596;2023-07-08T15:14:16;2.88;;;2.03;;
3689;SDS011;1861;50.240;8.596;2023-07-08T15:16:46;4.15;;;2.53;;
3689;SDS011;1861;50.240;8.596;2023-07-08T15:19:14;2.38;;;1.98;;
3689;SDS011;1861;50.240;8.596;2023-07-08T15:21:43;3.90;;;2.13;;
3689;SDS011;1861;50.240;8.596;2023-07-08T15:24:12;2.95;;;2.30;;
3689;SDS011;1861;50.240;8.596;2023-07-08T15:26:41;4.22;;;2.30;;
3689;SDS011;1861;50.240;8.596;2023-07-08T15:29:14;3.55;;;2.67;;
3689;SDS011;1861;50.240;8.596;2023-07-08T15:31:44;5.72;;;2.10;;
3689;SDS011;1861;50.240;8.596;2023-07-08T15:34:13;3.40;;;2.47;;
3689;SDS011;1861;50.240;8.596;2023-07-08T15:36:42;2.95;;;2.25;;
3689;SDS011;1861;50.240;8.596;2023-07-08T15:39:10;2.45;;;2.10;;
3689;SDS011;1861;50.240;8.596;2023-07-08T15:41:40;2.20;;;1.67;;
3689;SDS011;1861;50.240;8.596;2023-07-08T15:44:09;2.33;;;2.10;;
3689;SDS011;1861;50.240;8.596;2023-07-08T15:46:41;3.70;;;2.20;;